Jennings, Missouri
Current Conditions -  °F | °C
As of 5:51 PM on Thursday 27 Nov 2014 (Local Time) from KSTL Reporting Station
Scattered Clouds Scattered Clouds  
Wind Chill: 24°   Ceiling: Unl
Heat Index: 29°   Visibility: 10mi
Dew Point: 17°   Wind: 5mph
Humidity: 61%   Direction: 340°NNW
Pressure: 30.47"   Gusts: NA
Location:  38.72°N, 90.25°W
Report Text: KSTL 272351Z 34004KT 10SM SCT250 M02/M08 A3047 RMK AO2 SLP330 T10171083 10017 21022 53006 $
Loading
Personal Weather Stations






























Interactive Weather Map New forecast layout! Learn more

10-Day Weather Forecast

Advertisements
Track Severe Weather on mobile